createdAt,value
2022-09-14T00:01:41.143Z,1.98
2022-09-14T00:04:10.791Z,2.20
2022-09-14T00:06:37.045Z,2.00
2022-09-14T00:09:03.684Z,1.88
2022-09-14T00:11:30.999Z,1.70
2022-09-14T00:13:58.302Z,1.65
2022-09-14T00:16:26.522Z,1.80
2022-09-14T00:18:53.444Z,2.20
2022-09-14T00:21:19.691Z,2.38
2022-09-14T00:23:45.930Z,2.35
2022-09-14T00:26:14.878Z,2.20
2022-09-14T00:28:45.036Z,1.70
2022-09-14T00:31:11.586Z,2.08
2022-09-14T00:33:38.387Z,1.67
2022-09-14T00:36:08.724Z,1.95
2022-09-14T00:41:02.076Z,2.03
2022-09-14T00:43:28.551Z,1.38
2022-09-14T00:45:54.937Z,2.10
2022-09-14T00:48:22.957Z,1.75
2022-09-14T00:50:49.195Z,1.55
2022-09-14T00:53:15.524Z,2.30
2022-09-14T00:55:41.739Z,1.85
2022-09-14T00:58:08.001Z,2.13
2022-09-14T01:00:34.232Z,2.15
2022-09-14T01:03:01.369Z,1.88
2022-09-14T01:05:36.222Z,2.03
2022-09-14T01:08:02.508Z,1.80
2022-09-14T01:10:28.691Z,1.83
2022-09-14T01:13:08.219Z,1.80
2022-09-14T01:15:47.240Z,1.63
2022-09-14T01:18:16.376Z,2.40
2022-09-14T01:20:56.076Z,2.42
2022-09-14T01:23:41.294Z,2.50
2022-09-14T01:26:16.528Z,2.22
2022-09-14T01:28:51.669Z,2.50
2022-09-14T01:31:38.241Z,2.53
2022-09-14T01:34:10.633Z,2.80
2022-09-14T01:36:38.931Z,2.05
2022-09-14T01:39:05.842Z,1.50
2022-09-14T01:41:32.878Z,2.25
2022-09-14T01:44:10.515Z,1.92
2022-09-14T01:46:41.702Z,1.95
2022-09-14T01:49:18.428Z,2.45
2022-09-14T01:51:47.709Z,2.53
2022-09-14T01:54:40.273Z,3.20
2022-09-14T01:57:10.835Z,2.45
2022-09-14T01:59:39.087Z,2.30
2022-09-14T02:02:11.234Z,2.70
2022-09-14T02:04:40.687Z,2.20
2022-09-14T02:07:07.071Z,2.20
2022-09-14T02:09:33.843Z,2.30
2022-09-14T02:12:00.871Z,2.70
2022-09-14T02:14:27.283Z,2.05
2022-09-14T02:16:53.787Z,2.25
2022-09-14T02:19:23.682Z,2.67
2022-09-14T02:21:50.288Z,2.60
2022-09-14T02:24:17.235Z,2.50
2022-09-14T02:26:43.554Z,2.83
2022-09-14T02:29:09.960Z,2.05
2022-09-14T02:31:55.022Z,2.17
2022-09-14T02:34:21.243Z,2.40
2022-09-14T02:36:49.922Z,2.30
2022-09-14T02:39:18.999Z,2.58
2022-09-14T02:41:50.274Z,2.85
2022-09-14T02:44:29.527Z,2.78
2022-09-14T02:47:01.375Z,2.30
2022-09-14T02:49:45.902Z,3.45
2022-09-14T02:52:15.579Z,3.40
2022-09-14T02:54:44.612Z,2.70
2022-09-14T02:57:10.871Z,3.63
2022-09-14T02:59:37.111Z,2.88
2022-09-14T03:02:03.569Z,3.72
2022-09-14T03:04:29.805Z,3.20
2022-09-14T03:06:56.691Z,3.17
2022-09-14T03:09:22.890Z,3.28
2022-09-14T03:11:49.112Z,2.88
2022-09-14T03:14:15.323Z,2.78
2022-09-14T03:16:41.613Z,3.00
2022-09-14T03:19:07.866Z,3.35
2022-09-14T03:21:34.254Z,2.85
2022-09-14T03:24:00.532Z,2.72
2022-09-14T03:26:28.896Z,3.17
2022-09-14T03:28:56.267Z,2.80
2022-09-14T03:31:22.909Z,2.85
2022-09-14T03:33:54.882Z,2.50
2022-09-14T03:36:21.296Z,3.20
2022-09-14T03:38:48.634Z,3.47
2022-09-14T03:41:14.975Z,3.17
2022-09-14T03:43:41.899Z,3.13
2022-09-14T03:46:09.121Z,3.13
2022-09-14T03:48:35.599Z,3.72
2022-09-14T03:51:02.475Z,3.10
2022-09-14T03:53:28.725Z,3.47
2022-09-14T03:55:54.939Z,3.42
2022-09-14T03:58:21.223Z,3.42
2022-09-14T04:00:47.418Z,3.10
2022-09-14T04:03:13.732Z,2.88
2022-09-14T04:05:40.011Z,3.63
2022-09-14T04:08:06.242Z,3.10
2022-09-14T04:10:32.505Z,3.10
2022-09-14T04:12:58.967Z,3.50
2022-09-14T04:15:25.176Z,3.92
2022-09-14T04:17:51.498Z,3.30
2022-09-14T04:20:18.257Z,3.35
2022-09-14T04:22:45.706Z,3.20
2022-09-14T04:25:12.044Z,3.25
2022-09-14T04:27:38.287Z,3.10
2022-09-14T04:30:05.652Z,3.58
2022-09-14T04:32:34.436Z,3.33
2022-09-14T04:35:00.966Z,3.55
2022-09-14T04:37:30.215Z,2.75
2022-09-14T04:39:56.501Z,3.40
2022-09-14T04:42:22.759Z,3.30
2022-09-14T04:44:48.967Z,3.10
2022-09-14T04:47:15.243Z,2.85
2022-09-14T04:49:41.525Z,2.65
2022-09-14T04:52:07.771Z,2.53
2022-09-14T04:54:34.024Z,2.47
2022-09-14T04:57:00.253Z,3.08
2022-09-14T04:59:26.447Z,3.10
2022-09-14T05:01:52.717Z,3.40
2022-09-14T05:04:19.019Z,3.05
2022-09-14T05:06:45.781Z,2.90
2022-09-14T05:09:14.238Z,2.65
2022-09-14T05:11:40.819Z,2.80
2022-09-14T05:14:07.129Z,2.33
2022-09-14T05:16:34.940Z,2.88
2022-09-14T05:19:02.080Z,2.95
2022-09-14T05:21:29.166Z,2.92
2022-09-14T05:23:56.317Z,2.88
2022-09-14T05:26:23.135Z,3.22
2022-09-14T05:28:50.479Z,3.38
2022-09-14T05:31:17.080Z,3.33
2022-09-14T05:33:43.391Z,2.90
2022-09-14T05:36:10.266Z,2.85
2022-09-14T05:38:37.765Z,3.10
2022-09-14T05:41:04.781Z,2.70
2022-09-14T05:43:31.461Z,2.78
2022-09-14T05:46:01.538Z,2.90
2022-09-14T05:48:30.269Z,3.53
2022-09-14T05:51:03.889Z,3.00
2022-09-14T05:53:30.543Z,3.00
2022-09-14T05:56:00.788Z,2.83
2022-09-14T05:58:27.034Z,3.55
2022-09-14T06:00:53.263Z,3.58
2022-09-14T06:03:19.523Z,2.65
2022-09-14T06:05:45.752Z,2.53
2022-09-14T06:08:11.959Z,3.50
2022-09-14T06:10:38.146Z,3.17
2022-09-14T06:13:04.352Z,3.60
2022-09-14T06:15:30.565Z,3.75
2022-09-14T06:17:57.363Z,3.97
2022-09-14T06:20:23.574Z,3.35
2022-09-14T06:22:49.797Z,3.60
2022-09-14T06:25:16.053Z,3.10
2022-09-14T06:27:42.259Z,3.92
2022-09-14T06:30:08.834Z,2.88
2022-09-14T06:32:35.046Z,2.83
2022-09-14T06:35:01.277Z,3.08
2022-09-14T06:37:27.526Z,2.90
2022-09-14T06:39:53.745Z,3.10
2022-09-14T06:42:20.012Z,3.45
2022-09-14T06:44:47.159Z,3.08
2022-09-14T06:47:13.403Z,3.15
2022-09-14T06:49:39.657Z,3.30
2022-09-14T06:52:05.987Z,3.28
2022-09-14T06:54:32.246Z,3.20
2022-09-14T06:56:58.675Z,3.38
2022-09-14T06:59:24.897Z,3.10
2022-09-14T07:01:51.109Z,2.80
2022-09-14T07:04:17.789Z,2.75
2022-09-14T07:06:45.399Z,3.38
2022-09-14T07:09:12.027Z,3.58
2022-09-14T07:11:38.639Z,3.80
2022-09-14T07:14:04.888Z,3.10
2022-09-14T07:16:31.918Z,3.45
2022-09-14T07:18:59.886Z,3.30
2022-09-14T07:21:26.422Z,2.92
2022-09-14T07:23:52.655Z,2.88
2022-09-14T07:26:20.215Z,3.45
2022-09-14T07:28:48.138Z,3.25
2022-09-14T07:31:19.088Z,3.08
2022-09-14T07:33:45.827Z,2.90
2022-09-14T07:36:12.640Z,3.42
2022-09-14T07:38:52.202Z,3.78
2022-09-14T07:43:50.126Z,2.92
2022-09-14T07:46:16.507Z,3.28
2022-09-14T07:48:42.803Z,2.80
2022-09-14T07:51:10.299Z,3.45
2022-09-14T07:53:40.558Z,2.88
2022-09-14T07:56:07.520Z,3.40
2022-09-14T07:58:33.927Z,3.22
2022-09-14T08:01:04.861Z,2.90
2022-09-14T08:03:31.698Z,2.80
2022-09-14T08:06:01.691Z,3.08
2022-09-14T08:08:29.308Z,3.35
2022-09-14T08:10:57.062Z,3.00
2022-09-14T08:13:23.264Z,3.55
2022-09-14T08:15:49.522Z,3.25
2022-09-14T08:18:15.850Z,3.03
2022-09-14T08:20:42.035Z,3.90
2022-09-14T08:23:08.315Z,3.17
2022-09-14T08:25:34.532Z,3.10
2022-09-14T08:28:00.827Z,3.30
2022-09-14T08:30:27.035Z,3.45
2022-09-14T08:32:53.257Z,3.78
2022-09-14T08:35:27.219Z,2.90
2022-09-14T08:38:05.688Z,3.08
2022-09-14T08:40:31.990Z,3.47
2022-09-14T08:42:58.971Z,3.35
2022-09-14T08:45:25.252Z,3.00
2022-09-14T08:47:52.155Z,2.97
2022-09-14T08:50:20.930Z,3.40
2022-09-14T08:52:53.826Z,2.80
2022-09-14T08:55:27.362Z,2.92
2022-09-14T08:57:57.384Z,2.90
2022-09-14T09:00:25.570Z,2.67
2022-09-14T09:03:10.491Z,3.05
2022-09-14T09:05:36.678Z,2.08
2022-09-14T09:08:21.519Z,2.17
2022-09-14T09:10:48.344Z,2.08
2022-09-14T09:13:18.766Z,2.38
2022-09-14T09:18:11.311Z,2.78
2022-09-14T09:20:46.167Z,2.10
2022-09-14T09:23:14.719Z,2.58
2022-09-14T09:25:46.820Z,2.45
2022-09-14T09:28:13.715Z,2.63
2022-09-14T09:30:41.279Z,3.92
2022-09-14T09:33:14.200Z,3.65
2022-09-14T09:35:40.429Z,3.28
2022-09-14T09:38:16.335Z,2.63
2022-09-14T09:40:45.715Z,2.83
2022-09-14T09:43:13.439Z,2.38
2022-09-14T09:45:47.490Z,2.33
2022-09-14T09:48:14.431Z,2.28
2022-09-14T09:50:47.368Z,3.33
2022-09-14T09:53:18.449Z,2.97
2022-09-14T09:55:47.949Z,2.80
2022-09-14T09:58:22.787Z,2.47
2022-09-14T10:01:12.455Z,2.53
2022-09-14T10:03:39.945Z,2.47
2022-09-14T10:06:07.787Z,3.15
2022-09-14T10:08:39.219Z,2.58
2022-09-14T10:11:05.502Z,3.03
2022-09-14T10:13:37.683Z,3.13
2022-09-14T10:16:08.855Z,2.35
2022-09-14T10:21:01.778Z,2.28
2022-09-14T10:23:29.261Z,2.10
2022-09-14T10:26:15.741Z,1.80
2022-09-14T10:28:48.623Z,2.33
2022-09-14T10:31:14.935Z,2.03
2022-09-14T10:33:41.494Z,2.45
2022-09-14T10:36:14.499Z,2.85
2022-09-14T10:38:46.417Z,2.30
2022-09-14T10:41:22.435Z,2.53
2022-09-14T10:43:54.552Z,1.88
2022-09-14T10:46:21.861Z,2.38
2022-09-14T10:48:48.166Z,2.00
2022-09-14T10:51:24.683Z,2.72
2022-09-14T10:53:59.768Z,2.45
2022-09-14T10:56:36.532Z,2.33
2022-09-14T10:59:15.421Z,2.80
2022-09-14T11:01:51.537Z,2.38
2022-09-14T11:04:35.908Z,3.15
2022-09-14T11:07:12.379Z,2.40
2022-09-14T11:09:43.011Z,2.58
2022-09-14T11:12:22.042Z,2.30
2022-09-14T11:14:48.228Z,2.40
2022-09-14T11:17:34.058Z,2.33
2022-09-14T11:20:08.550Z,2.28
2022-09-14T11:22:46.167Z,2.38
2022-09-14T11:25:18.424Z,2.78
2022-09-14T11:27:48.865Z,2.80
2022-09-14T12:25:55.787Z,2.67
2022-09-14T12:28:40.015Z,2.20
2022-09-14T12:31:06.293Z,2.60
2022-09-14T12:33:32.698Z,2.42
2022-09-14T12:35:58.881Z,2.45
2022-09-14T12:38:31.331Z,3.33
2022-09-14T12:41:24.060Z,2.50
2022-09-14T12:43:50.624Z,2.33
2022-09-14T12:46:20.139Z,2.38
2022-09-14T12:48:49.384Z,2.30
2022-09-14T12:51:21.599Z,2.35
2022-09-14T12:53:50.700Z,2.60
2022-09-14T12:56:20.485Z,2.63
2022-09-14T12:58:49.816Z,2.00
2022-09-14T13:01:16.158Z,2.30
2022-09-14T13:03:50.254Z,2.60
2022-09-14T13:06:17.443Z,2.40
2022-09-14T13:08:44.826Z,2.10
2022-09-14T13:11:17.996Z,2.05
2022-09-14T13:13:44.444Z,1.80
2022-09-14T13:16:15.959Z,2.20
2022-09-14T13:18:42.265Z,2.60
2022-09-14T13:21:24.818Z,1.85
2022-09-14T13:23:51.291Z,2.15
2022-09-14T13:26:19.609Z,2.67
2022-09-14T13:28:47.415Z,1.63
2022-09-14T13:31:15.039Z,2.17
2022-09-14T13:33:46.463Z,1.80
2022-09-14T13:36:16.344Z,1.73
2022-09-14T13:38:42.688Z,2.38
2022-09-14T13:41:10.532Z,1.88
2022-09-14T13:43:36.971Z,1.95
2022-09-14T13:46:05.252Z,2.33
2022-09-14T13:48:31.574Z,2.00
2022-09-14T13:50:57.864Z,1.63
2022-09-14T13:53:42.461Z,1.95
2022-09-14T13:56:17.960Z,2.65
2022-09-14T13:58:44.519Z,2.17
2022-09-14T14:01:10.897Z,1.60
2022-09-14T14:03:38.593Z,2.15
2022-09-14T14:06:17.239Z,2.30
2022-09-14T14:08:43.682Z,1.88
2022-09-14T14:11:09.926Z,2.08
2022-09-14T14:13:37.291Z,1.20
2022-09-14T14:16:32.958Z,1.70
2022-09-14T14:18:59.199Z,1.58
2022-09-14T14:21:30.151Z,1.27
2022-09-14T14:24:15.531Z,1.15
2022-09-14T14:26:49.524Z,1.65
2022-09-14T14:29:16.412Z,1.30
2022-09-14T14:31:42.654Z,1.33
2022-09-14T14:34:19.469Z,1.40
2022-09-14T14:36:47.853Z,1.60
2022-09-14T14:39:14.280Z,1.42
2022-09-14T14:41:40.677Z,1.42
2022-09-14T14:44:09.832Z,1.27
2022-09-14T14:46:36.105Z,1.35
2022-09-14T14:49:02.342Z,1.70
2022-09-14T14:51:28.626Z,1.67
2022-09-14T14:53:54.856Z,1.58
2022-09-14T14:56:21.064Z,1.52
2022-09-14T14:58:47.730Z,2.13
2022-09-14T15:01:14.076Z,1.77
2022-09-14T15:03:40.396Z,1.52
2022-09-14T15:06:16.432Z,1.83
2022-09-14T15:08:42.775Z,1.50
2022-09-14T15:11:18.724Z,1.33
2022-09-14T15:13:45.556Z,1.45
2022-09-14T15:16:12.510Z,1.42
2022-09-14T15:18:39.060Z,1.60
2022-09-14T15:21:05.813Z,1.73
2022-09-14T15:23:32.483Z,1.42
2022-09-14T15:25:58.844Z,1.23
2022-09-14T15:28:25.195Z,1.98
2022-09-14T15:30:51.792Z,1.50
2022-09-14T15:33:18.807Z,1.40
2022-09-14T15:35:45.042Z,1.00
2022-09-14T15:38:11.297Z,1.40
2022-09-14T15:40:37.583Z,1.60
2022-09-14T15:43:04.149Z,1.40
2022-09-14T15:45:30.416Z,1.30
2022-09-14T15:47:56.666Z,1.10
2022-09-14T15:50:22.878Z,1.35
2022-09-14T15:52:49.219Z,1.63
2022-09-14T15:55:15.487Z,1.60
2022-09-14T15:57:41.756Z,1.73
2022-09-14T16:00:09.711Z,1.30
2022-09-14T16:02:36.008Z,1.33
2022-09-14T16:05:02.298Z,1.40
2022-09-14T16:07:29.673Z,1.30
2022-09-14T16:09:58.869Z,1.45
2022-09-14T16:12:25.410Z,1.63
2022-09-14T16:14:51.615Z,1.15
2022-09-14T16:17:17.845Z,1.13
2022-09-14T16:19:44.083Z,1.50
2022-09-14T16:22:10.343Z,1.67
2022-09-14T16:24:36.550Z,1.30
2022-09-14T16:27:02.782Z,2.95
2022-09-14T16:29:29.004Z,1.23
2022-09-14T16:31:55.442Z,1.42
2022-09-14T16:34:23.585Z,1.45
2022-09-14T16:36:50.323Z,1.00
2022-09-14T16:39:22.782Z,1.45
2022-09-14T16:41:49.065Z,1.50
2022-09-14T16:44:16.713Z,1.60
2022-09-14T16:46:43.364Z,1.15
2022-09-14T16:49:09.623Z,1.33
2022-09-14T16:51:36.211Z,0.85
2022-09-14T16:54:02.632Z,0.80
2022-09-14T16:56:30.852Z,0.98
2022-09-14T16:58:57.787Z,1.08
2022-09-14T17:01:24.136Z,1.20
2022-09-14T17:03:51.460Z,1.20
2022-09-14T17:06:19.900Z,0.70
2022-09-14T17:08:46.755Z,1.00
2022-09-14T17:11:13.694Z,0.90
2022-09-14T17:13:40.153Z,0.85
2022-09-14T17:16:08.351Z,0.90
2022-09-14T17:18:36.455Z,0.75
2022-09-14T17:21:05.817Z,0.60
2022-09-14T17:23:32.113Z,0.63
2022-09-14T17:25:58.599Z,0.80
2022-09-14T17:28:26.548Z,0.82
2022-09-14T17:30:53.584Z,0.80
2022-09-14T17:33:20.199Z,1.27
2022-09-14T17:35:50.604Z,0.70
2022-09-14T17:38:17.220Z,1.10
2022-09-14T17:40:43.718Z,1.00
2022-09-14T17:43:10.794Z,0.90
2022-09-14T17:45:37.356Z,1.00
2022-09-14T17:48:04.719Z,0.65
2022-09-14T17:50:31.594Z,1.10
2022-09-14T17:52:57.819Z,1.08
2022-09-14T17:55:24.627Z,1.10
2022-09-14T17:57:50.967Z,1.33
2022-09-14T18:00:17.316Z,1.27
2022-09-14T18:02:43.563Z,1.48
2022-09-14T18:05:09.796Z,1.10
2022-09-14T18:07:36.354Z,0.88
2022-09-14T18:10:02.617Z,0.88
2022-09-14T18:12:32.315Z,1.10
2022-09-14T18:14:58.515Z,0.65
2022-09-14T18:17:24.843Z,0.70
2022-09-14T18:19:54.286Z,1.23
2022-09-14T18:22:20.802Z,1.37
2022-09-14T18:24:47.015Z,1.15
2022-09-14T18:27:13.219Z,0.90
2022-09-14T18:29:39.991Z,0.75
2022-09-14T18:32:06.215Z,1.05
2022-09-14T18:34:32.416Z,0.60
2022-09-14T18:36:58.719Z,1.13
2022-09-14T18:39:25.064Z,0.80
2022-09-14T18:41:54.229Z,1.35
2022-09-14T18:44:20.760Z,0.90
2022-09-14T18:46:47.195Z,0.80
2022-09-14T18:49:13.518Z,1.10
2022-09-14T18:51:39.738Z,0.73
2022-09-14T18:54:07.175Z,0.70
2022-09-14T18:56:34.479Z,0.70
2022-09-14T18:59:01.732Z,1.15
2022-09-14T19:01:28.062Z,1.30
2022-09-14T19:03:55.874Z,0.80
2022-09-14T19:06:22.924Z,1.05
2022-09-14T19:08:49.543Z,1.20
2022-09-14T19:11:19.989Z,1.15
2022-09-14T19:16:14.785Z,1.05
2022-09-14T19:18:41.683Z,0.93
2022-09-14T19:21:09.439Z,0.82
2022-09-14T19:23:36.363Z,1.00
2022-09-14T19:26:06.521Z,0.85
2022-09-14T19:28:33.453Z,1.05
2022-09-14T19:30:59.741Z,1.17
2022-09-14T19:33:26.015Z,1.00
2022-09-14T19:35:52.216Z,0.80
2022-09-14T19:38:18.605Z,1.15
2022-09-14T19:40:52.383Z,0.80
2022-09-14T19:43:18.711Z,1.10
2022-09-14T19:45:44.960Z,1.10
2022-09-14T19:48:11.415Z,0.95
2022-09-14T19:50:37.599Z,1.17
2022-09-14T19:53:04.690Z,0.95
2022-09-14T19:55:31.174Z,0.85
2022-09-14T19:57:57.501Z,0.98
2022-09-14T20:00:23.714Z,0.90
2022-09-14T20:02:50.017Z,1.50
2022-09-14T20:05:16.291Z,0.70
2022-09-14T20:07:42.853Z,1.38
2022-09-14T20:10:09.422Z,1.20
2022-09-14T20:12:35.651Z,1.10
2022-09-14T20:15:01.922Z,1.30
2022-09-14T20:17:28.168Z,1.10
2022-09-14T20:19:54.385Z,1.30
2022-09-14T20:22:20.630Z,1.15
2022-09-14T20:24:46.851Z,1.20
2022-09-14T20:27:13.075Z,1.75
2022-09-14T20:29:39.307Z,1.20
2022-09-14T20:32:05.842Z,1.60
2022-09-14T20:34:32.187Z,2.00
2022-09-14T20:37:00.151Z,2.05
2022-09-14T20:39:26.711Z,1.33
2022-09-14T20:41:53.050Z,1.70
2022-09-14T20:44:22.111Z,1.30
2022-09-14T20:46:49.181Z,1.50
2022-09-14T20:49:16.901Z,1.50
2022-09-14T20:51:43.429Z,1.48
2022-09-14T20:54:14.289Z,1.25
2022-09-14T20:56:41.029Z,1.20
2022-09-14T20:59:09.440Z,1.45
2022-09-14T21:01:36.846Z,1.73
2022-09-14T21:04:04.827Z,1.20
2022-09-14T21:06:31.356Z,1.17
2022-09-14T21:08:59.763Z,1.23
2022-09-14T21:11:26.779Z,1.38
2022-09-14T21:13:53.844Z,1.45
2022-09-14T21:16:31.282Z,1.08
2022-09-14T21:18:58.822Z,1.10
2022-09-14T21:21:25.683Z,1.88
2022-09-14T21:23:52.907Z,1.30
2022-09-14T21:26:19.800Z,1.77
2022-09-14T21:28:46.468Z,2.30
2022-09-14T21:31:17.495Z,1.98
2022-09-14T21:33:45.190Z,1.80
2022-09-14T21:36:21.653Z,1.63
2022-09-14T21:38:59.541Z,1.30
2022-09-14T21:41:27.064Z,1.77
2022-09-14T21:43:53.687Z,1.30
2022-09-14T21:46:19.984Z,1.25
2022-09-14T21:48:46.581Z,1.40
2022-09-14T21:51:17.817Z,1.55
2022-09-14T21:53:45.375Z,1.80
2022-09-14T21:56:11.790Z,3.25
2022-09-14T21:58:38.391Z,1.90
2022-09-14T22:01:04.685Z,1.92
2022-09-14T22:03:31.004Z,1.80
2022-09-14T22:06:01.992Z,1.50
2022-09-14T22:08:29.396Z,1.45
2022-09-14T22:10:55.798Z,1.42
2022-09-14T22:13:22.065Z,1.73
2022-09-14T22:15:48.338Z,1.85
2022-09-14T22:18:14.555Z,1.83
2022-09-14T22:20:41.018Z,1.40
2022-09-14T22:23:07.235Z,1.80
2022-09-14T22:25:33.693Z,1.52
2022-09-14T22:28:00.156Z,1.05
2022-09-14T22:30:26.419Z,1.33
2022-09-14T22:32:52.650Z,1.40
2022-09-14T22:35:18.853Z,1.30
2022-09-14T22:37:45.072Z,1.45
2022-09-14T22:40:11.320Z,1.98
2022-09-14T22:42:37.584Z,1.30
2022-09-14T22:45:03.966Z,1.25
2022-09-14T22:47:30.175Z,1.77
2022-09-14T22:49:56.460Z,1.65
2022-09-14T22:52:23.828Z,1.60
2022-09-14T22:54:50.026Z,1.45
2022-09-14T22:57:16.240Z,1.83
2022-09-14T22:59:42.811Z,2.00
2022-09-14T23:02:09.074Z,1.20
2022-09-14T23:04:35.320Z,1.45
2022-09-14T23:07:01.509Z,1.52
2022-09-14T23:09:28.341Z,1.48
2022-09-14T23:11:54.535Z,1.50
2022-09-14T23:14:20.746Z,0.85
2022-09-14T23:16:47.053Z,1.13
2022-09-14T23:19:17.741Z,1.55
2022-09-14T23:21:44.263Z,1.80
2022-09-14T23:24:10.950Z,1.52
2022-09-14T23:26:37.252Z,1.60
2022-09-14T23:29:09.312Z,1.60
2022-09-14T23:31:35.522Z,1.90
2022-09-14T23:34:02.441Z,1.40
2022-09-14T23:36:29.151Z,1.42
2022-09-14T23:38:55.682Z,1.88
2022-09-14T23:41:22.709Z,2.17
2022-09-14T23:43:49.137Z,1.80
2022-09-14T23:46:15.772Z,1.90
2022-09-14T23:48:42.463Z,2.10
2022-09-14T23:51:10.003Z,2.40
2022-09-14T23:53:36.779Z,2.05
2022-09-14T23:56:03.549Z,2.20
2022-09-14T23:58:30.448Z,2.05
